sensor_id;sensor_type;location;lat;lon;timestamp;P1;durP1;ratioP1;P2;durP2;ratioP2
35364;SDS011;21464;48.112;11.530;2023-03-16T00:00:12;6.93;;;5.57;;
35364;SDS011;21464;48.112;11.530;2023-03-16T00:02:39;6.93;;;6.03;;
35364;SDS011;21464;48.112;11.530;2023-03-16T00:05:07;7.13;;;5.80;;
35364;SDS011;21464;48.112;11.530;2023-03-16T00:07:34;5.43;;;4.83;;
35364;SDS011;21464;48.112;11.530;2023-03-16T00:10:00;6.70;;;5.27;;
35364;SDS011;21464;48.112;11.530;2023-03-16T00:12:28;6.90;;;5.77;;
35364;SDS011;21464;48.112;11.530;2023-03-16T00:14:54;8.97;;;6.07;;
35364;SDS011;21464;48.112;11.530;2023-03-16T00:17:20;7.07;;;5.53;;
35364;SDS011;21464;48.112;11.530;2023-03-16T00:19:51;6.83;;;5.17;;
35364;SDS011;21464;48.112;11.530;2023-03-16T00:22:23;8.67;;;5.47;;
35364;SDS011;21464;48.112;11.530;2023-03-16T00:24:51;8.47;;;5.80;;
35364;SDS011;21464;48.112;11.530;2023-03-16T00:27:18;8.97;;;5.57;;
35364;SDS011;21464;48.112;11.530;2023-03-16T00:29:48;8.97;;;5.90;;
35364;SDS011;21464;48.112;11.530;2023-03-16T00:32:16;7.03;;;6.00;;
35364;SDS011;21464;48.112;11.530;2023-03-16T00:34:44;6.47;;;5.80;;
35364;SDS011;21464;48.112;11.530;2023-03-16T00:37:11;7.17;;;6.20;;
35364;SDS011;21464;48.112;11.530;2023-03-16T00:39:40;6.17;;;5.43;;
35364;SDS011;21464;48.112;11.530;2023-03-16T00:42:08;6.73;;;5.40;;
35364;SDS011;21464;48.112;11.530;2023-03-16T00:44:35;10.50;;;6.00;;
35364;SDS011;21464;48.112;11.530;2023-03-16T00:47:03;7.53;;;5.73;;
35364;SDS011;21464;48.112;11.530;2023-03-16T00:49:30;6.00;;;5.40;;
35364;SDS011;21464;48.112;11.530;2023-03-16T00:52:00;8.63;;;5.27;;
35364;SDS011;21464;48.112;11.530;2023-03-16T00:54:27;6.53;;;5.20;;
35364;SDS011;21464;48.112;11.530;2023-03-16T00:56:54;5.30;;;4.80;;
35364;SDS011;21464;48.112;11.530;2023-03-16T00:59:20;7.50;;;5.10;;
35364;SDS011;21464;48.112;11.530;2023-03-16T01:01:47;6.43;;;5.37;;
35364;SDS011;21464;48.112;11.530;2023-03-16T01:04:13;6.77;;;5.63;;
35364;SDS011;21464;48.112;11.530;2023-03-16T01:06:39;9.67;;;5.17;;
35364;SDS011;21464;48.112;11.530;2023-03-16T01:09:06;9.07;;;6.83;;
35364;SDS011;21464;48.112;11.530;2023-03-16T01:11:34;7.77;;;5.57;;
35364;SDS011;21464;48.112;11.530;2023-03-16T01:14:00;6.40;;;5.43;;
35364;SDS011;21464;48.112;11.530;2023-03-16T01:16:26;7.70;;;5.17;;
35364;SDS011;21464;48.112;11.530;2023-03-16T01:18:53;6.70;;;5.00;;
35364;SDS011;21464;48.112;11.530;2023-03-16T01:21:20;6.33;;;5.70;;
35364;SDS011;21464;48.112;11.530;2023-03-16T01:23:48;6.17;;;5.40;;
35364;SDS011;21464;48.112;11.530;2023-03-16T01:26:15;5.83;;;5.27;;
35364;SDS011;21464;48.112;11.530;2023-03-16T01:28:43;6.53;;;5.23;;
35364;SDS011;21464;48.112;11.530;2023-03-16T01:31:10;10.77;;;5.90;;
35364;SDS011;21464;48.112;11.530;2023-03-16T01:33:39;5.90;;;5.40;;
35364;SDS011;21464;48.112;11.530;2023-03-16T01:36:10;5.97;;;5.37;;
35364;SDS011;21464;48.112;11.530;2023-03-16T01:39:00;7.17;;;6.07;;
35364;SDS011;21464;48.112;11.530;2023-03-16T01:41:32;6.90;;;5.60;;
35364;SDS011;21464;48.112;11.530;2023-03-16T01:43:58;8.67;;;5.80;;
35364;SDS011;21464;48.112;11.530;2023-03-16T01:46:26;6.70;;;6.00;;
35364;SDS011;21464;48.112;11.530;2023-03-16T01:48:55;7.80;;;6.00;;
35364;SDS011;21464;48.112;11.530;2023-03-16T01:51:27;6.57;;;5.83;;
35364;SDS011;21464;48.112;11.530;2023-03-16T01:54:49;7.73;;;6.13;;
35364;SDS011;21464;48.112;11.530;2023-03-16T01:59:31;6.93;;;6.23;;
35364;SDS011;21464;48.112;11.530;2023-03-16T02:02:01;7.13;;;6.27;;
35364;SDS011;21464;48.112;11.530;2023-03-16T02:07:13;8.37;;;6.63;;
35364;SDS011;21464;48.112;11.530;2023-03-16T02:09:43;7.40;;;6.33;;
35364;SDS011;21464;48.112;11.530;2023-03-16T02:12:13;10.17;;;6.60;;
35364;SDS011;21464;48.112;11.530;2023-03-16T02:14:45;7.97;;;6.63;;
35364;SDS011;21464;48.112;11.530;2023-03-16T02:17:12;8.40;;;6.83;;
35364;SDS011;21464;48.112;11.530;2023-03-16T02:22:12;9.33;;;7.07;;
35364;SDS011;21464;48.112;11.530;2023-03-16T02:24:39;8.43;;;7.13;;
35364;SDS011;21464;48.112;11.530;2023-03-16T02:27:10;8.63;;;7.37;;
35364;SDS011;21464;48.112;11.530;2023-03-16T02:32:25;7.57;;;6.30;;
35364;SDS011;21464;48.112;11.530;2023-03-16T02:34:54;8.30;;;6.60;;
35364;SDS011;21464;48.112;11.530;2023-03-16T02:37:20;9.40;;;6.73;;
35364;SDS011;21464;48.112;11.530;2023-03-16T02:39:48;7.70;;;6.90;;
35364;SDS011;21464;48.112;11.530;2023-03-16T02:42:17;7.80;;;6.87;;
35364;SDS011;21464;48.112;11.530;2023-03-16T02:44:47;9.77;;;7.53;;
35364;SDS011;21464;48.112;11.530;2023-03-16T02:47:41;9.80;;;7.43;;
35364;SDS011;21464;48.112;11.530;2023-03-16T02:50:07;7.03;;;6.33;;
35364;SDS011;21464;48.112;11.530;2023-03-16T02:52:34;7.80;;;6.80;;
35364;SDS011;21464;48.112;11.530;2023-03-16T02:55:03;8.47;;;7.37;;
35364;SDS011;21464;48.112;11.530;2023-03-16T02:57:30;9.30;;;7.07;;
35364;SDS011;21464;48.112;11.530;2023-03-16T03:00:01;8.53;;;7.03;;
35364;SDS011;21464;48.112;11.530;2023-03-16T03:02:32;10.07;;;6.90;;
35364;SDS011;21464;48.112;11.530;2023-03-16T03:04:59;8.33;;;7.07;;
35364;SDS011;21464;48.112;11.530;2023-03-16T03:07:26;10.67;;;7.30;;
35364;SDS011;21464;48.112;11.530;2023-03-16T03:10:01;9.03;;;7.47;;
35364;SDS011;21464;48.112;11.530;2023-03-16T03:12:29;8.27;;;7.13;;
35364;SDS011;21464;48.112;11.530;2023-03-16T03:14:56;12.03;;;7.27;;
35364;SDS011;21464;48.112;11.530;2023-03-16T03:17:23;10.33;;;7.17;;
35364;SDS011;21464;48.112;11.530;2023-03-16T03:19:56;8.93;;;7.40;;
35364;SDS011;21464;48.112;11.530;2023-03-16T03:22:24;9.43;;;7.30;;
35364;SDS011;21464;48.112;11.530;2023-03-16T03:24:51;8.20;;;7.40;;
35364;SDS011;21464;48.112;11.530;2023-03-16T03:27:18;9.10;;;7.80;;
35364;SDS011;21464;48.112;11.530;2023-03-16T03:29:49;8.63;;;7.37;;
35364;SDS011;21464;48.112;11.530;2023-03-16T03:32:15;10.00;;;7.50;;
35364;SDS011;21464;48.112;11.530;2023-03-16T03:34:41;10.60;;;8.20;;
35364;SDS011;21464;48.112;11.530;2023-03-16T03:37:07;10.00;;;9.00;;
35364;SDS011;21464;48.112;11.530;2023-03-16T03:39:35;10.43;;;8.07;;
35364;SDS011;21464;48.112;11.530;2023-03-16T03:42:01;9.97;;;8.10;;
35364;SDS011;21464;48.112;11.530;2023-03-16T03:44:28;9.40;;;8.07;;
35364;SDS011;21464;48.112;11.530;2023-03-16T03:46:54;9.67;;;8.03;;
35364;SDS011;21464;48.112;11.530;2023-03-16T03:49:25;11.17;;;9.20;;
35364;SDS011;21464;48.112;11.530;2023-03-16T03:51:51;11.20;;;9.13;;
35364;SDS011;21464;48.112;11.530;2023-03-16T03:54:23;12.57;;;9.63;;
35364;SDS011;21464;48.112;11.530;2023-03-16T03:56:56;11.00;;;9.67;;
35364;SDS011;21464;48.112;11.530;2023-03-16T03:59:22;12.47;;;10.67;;
35364;SDS011;21464;48.112;11.530;2023-03-16T04:02:06;13.13;;;10.90;;
35364;SDS011;21464;48.112;11.530;2023-03-16T04:04:49;12.67;;;10.83;;
35364;SDS011;21464;48.112;11.530;2023-03-16T04:07:16;14.10;;;10.70;;
35364;SDS011;21464;48.112;11.530;2023-03-16T04:09:43;15.23;;;11.07;;
35364;SDS011;21464;48.112;11.530;2023-03-16T04:12:19;15.50;;;12.53;;
35364;SDS011;21464;48.112;11.530;2023-03-16T04:14:46;16.03;;;12.87;;
35364;SDS011;21464;48.112;11.530;2023-03-16T04:17:14;18.23;;;13.03;;
35364;SDS011;21464;48.112;11.530;2023-03-16T04:19:41;17.40;;;13.07;;
35364;SDS011;21464;48.112;11.530;2023-03-16T04:22:12;18.60;;;14.63;;
35364;SDS011;21464;48.112;11.530;2023-03-16T04:24:38;17.03;;;14.10;;
35364;SDS011;21464;48.112;11.530;2023-03-16T04:27:05;19.43;;;13.60;;
35364;SDS011;21464;48.112;11.530;2023-03-16T04:29:31;18.20;;;13.93;;
35364;SDS011;21464;48.112;11.530;2023-03-16T04:31:58;17.43;;;14.23;;
35364;SDS011;21464;48.112;11.530;2023-03-16T04:34:26;17.90;;;14.20;;
35364;SDS011;21464;48.112;11.530;2023-03-16T04:36:56;17.10;;;14.17;;
35364;SDS011;21464;48.112;11.530;2023-03-16T04:39:23;18.73;;;15.30;;
35364;SDS011;21464;48.112;11.530;2023-03-16T04:41:49;20.93;;;16.03;;
35364;SDS011;21464;48.112;11.530;2023-03-16T04:44:20;19.57;;;15.00;;
35364;SDS011;21464;48.112;11.530;2023-03-16T04:46:48;20.27;;;15.20;;
35364;SDS011;21464;48.112;11.530;2023-03-16T04:49:16;19.80;;;15.03;;
35364;SDS011;21464;48.112;11.530;2023-03-16T04:51:44;22.13;;;16.97;;
35364;SDS011;21464;48.112;11.530;2023-03-16T04:54:14;20.40;;;17.17;;
35364;SDS011;21464;48.112;11.530;2023-03-16T04:56:42;20.53;;;16.00;;
35364;SDS011;21464;48.112;11.530;2023-03-16T04:59:19;18.93;;;15.63;;
35364;SDS011;21464;48.112;11.530;2023-03-16T05:01:57;29.30;;;20.20;;
35364;SDS011;21464;48.112;11.530;2023-03-16T05:04:23;33.57;;;23.43;;
35364;SDS011;21464;48.112;11.530;2023-03-16T05:06:50;19.93;;;15.33;;
35364;SDS011;21464;48.112;11.530;2023-03-16T05:09:20;20.10;;;14.63;;
35364;SDS011;21464;48.112;11.530;2023-03-16T05:11:46;18.80;;;13.57;;
35364;SDS011;21464;48.112;11.530;2023-03-16T05:14:12;15.07;;;13.10;;
35364;SDS011;21464;48.112;11.530;2023-03-16T05:16:52;16.30;;;13.27;;
35364;SDS011;21464;48.112;11.530;2023-03-16T05:19:20;17.67;;;12.80;;
35364;SDS011;21464;48.112;11.530;2023-03-16T05:21:46;15.77;;;13.07;;
35364;SDS011;21464;48.112;11.530;2023-03-16T05:24:12;18.00;;;12.37;;
35364;SDS011;21464;48.112;11.530;2023-03-16T05:26:39;14.60;;;12.50;;
35364;SDS011;21464;48.112;11.530;2023-03-16T05:29:09;16.00;;;11.97;;
35364;SDS011;21464;48.112;11.530;2023-03-16T05:31:35;13.60;;;11.83;;
35364;SDS011;21464;48.112;11.530;2023-03-16T05:34:08;13.40;;;11.13;;
35364;SDS011;21464;48.112;11.530;2023-03-16T05:36:35;15.57;;;12.33;;
35364;SDS011;21464;48.112;11.530;2023-03-16T05:39:07;14.00;;;11.40;;
35364;SDS011;21464;48.112;11.530;2023-03-16T05:41:39;14.63;;;11.27;;
35364;SDS011;21464;48.112;11.530;2023-03-16T05:44:41;14.53;;;11.23;;
35364;SDS011;21464;48.112;11.530;2023-03-16T05:47:23;13.37;;;11.23;;
35364;SDS011;21464;48.112;11.530;2023-03-16T05:49:54;13.13;;;11.73;;
35364;SDS011;21464;48.112;11.530;2023-03-16T05:52:37;13.03;;;11.50;;
35364;SDS011;21464;48.112;11.530;2023-03-16T05:55:12;14.03;;;11.20;;
35364;SDS011;21464;48.112;11.530;2023-03-16T05:57:39;14.03;;;10.90;;
35364;SDS011;21464;48.112;11.530;2023-03-16T06:00:09;14.07;;;11.37;;
35364;SDS011;21464;48.112;11.530;2023-03-16T06:02:45;12.03;;;10.67;;
35364;SDS011;21464;48.112;11.530;2023-03-16T06:05:13;14.30;;;11.00;;
35364;SDS011;21464;48.112;11.530;2023-03-16T06:07:42;15.23;;;11.47;;
35364;SDS011;21464;48.112;11.530;2023-03-16T06:10:09;13.00;;;10.73;;
35364;SDS011;21464;48.112;11.530;2023-03-16T06:12:37;13.80;;;11.27;;
35364;SDS011;21464;48.112;11.530;2023-03-16T06:15:03;15.13;;;11.90;;
35364;SDS011;21464;48.112;11.530;2023-03-16T06:17:34;12.93;;;11.53;;
35364;SDS011;21464;48.112;11.530;2023-03-16T06:20:01;14.93;;;11.93;;
35364;SDS011;21464;48.112;11.530;2023-03-16T06:22:30;13.67;;;11.17;;
35364;SDS011;21464;48.112;11.530;2023-03-16T06:24:56;14.23;;;11.23;;
35364;SDS011;21464;48.112;11.530;2023-03-16T06:27:22;13.87;;;11.00;;
35364;SDS011;21464;48.112;11.530;2023-03-16T06:30:05;13.70;;;11.80;;
35364;SDS011;21464;48.112;11.530;2023-03-16T06:32:33;14.33;;;11.83;;
35364;SDS011;21464;48.112;11.530;2023-03-16T06:35:01;13.30;;;11.33;;
35364;SDS011;21464;48.112;11.530;2023-03-16T06:37:29;15.60;;;13.10;;
35364;SDS011;21464;48.112;11.530;2023-03-16T06:39:57;15.57;;;12.50;;
35364;SDS011;21464;48.112;11.530;2023-03-16T06:42:23;15.47;;;13.47;;
35364;SDS011;21464;48.112;11.530;2023-03-16T06:44:50;18.37;;;14.30;;
35364;SDS011;21464;48.112;11.530;2023-03-16T06:47:18;15.03;;;12.57;;
35364;SDS011;21464;48.112;11.530;2023-03-16T06:49:44;16.97;;;13.23;;
35364;SDS011;21464;48.112;11.530;2023-03-16T06:52:19;16.73;;;13.30;;
35364;SDS011;21464;48.112;11.530;2023-03-16T06:54:45;16.30;;;13.63;;
35364;SDS011;21464;48.112;11.530;2023-03-16T06:57:13;16.30;;;13.33;;
35364;SDS011;21464;48.112;11.530;2023-03-16T06:59:39;19.37;;;13.10;;
35364;SDS011;21464;48.112;11.530;2023-03-16T07:02:08;15.10;;;12.23;;
35364;SDS011;21464;48.112;11.530;2023-03-16T07:04:39;17.70;;;12.93;;
35364;SDS011;21464;48.112;11.530;2023-03-16T07:07:06;15.97;;;12.67;;
35364;SDS011;21464;48.112;11.530;2023-03-16T07:09:33;17.00;;;13.77;;
35364;SDS011;21464;48.112;11.530;2023-03-16T07:11:59;15.93;;;12.83;;
35364;SDS011;21464;48.112;11.530;2023-03-16T07:14:26;15.60;;;13.00;;
35364;SDS011;21464;48.112;11.530;2023-03-16T07:16:54;16.10;;;13.13;;
35364;SDS011;21464;48.112;11.530;2023-03-16T07:19:22;17.70;;;13.67;;
35364;SDS011;21464;48.112;11.530;2023-03-16T07:21:48;13.90;;;12.10;;
35364;SDS011;21464;48.112;11.530;2023-03-16T07:24:18;14.97;;;12.97;;
35364;SDS011;21464;48.112;11.530;2023-03-16T07:26:45;16.17;;;13.67;;
35364;SDS011;21464;48.112;11.530;2023-03-16T07:29:18;16.93;;;13.07;;
35364;SDS011;21464;48.112;11.530;2023-03-16T07:31:45;15.00;;;12.67;;
35364;SDS011;21464;48.112;11.530;2023-03-16T07:34:17;15.57;;;12.90;;
35364;SDS011;21464;48.112;11.530;2023-03-16T07:36:47;15.97;;;12.90;;
35364;SDS011;21464;48.112;11.530;2023-03-16T07:39:14;16.37;;;12.63;;
35364;SDS011;21464;48.112;11.530;2023-03-16T07:41:42;15.83;;;12.90;;
35364;SDS011;21464;48.112;11.530;2023-03-16T07:44:26;13.60;;;11.87;;
35364;SDS011;21464;48.112;11.530;2023-03-16T07:46:54;13.00;;;11.63;;
35364;SDS011;21464;48.112;11.530;2023-03-16T07:49:24;14.87;;;12.20;;
35364;SDS011;21464;48.112;11.530;2023-03-16T07:51:52;12.40;;;11.10;;
35364;SDS011;21464;48.112;11.530;2023-03-16T07:54:22;12.70;;;10.73;;
35364;SDS011;21464;48.112;11.530;2023-03-16T07:56:49;13.30;;;11.80;;
35364;SDS011;21464;48.112;11.530;2023-03-16T07:59:34;13.73;;;11.23;;
35364;SDS011;21464;48.112;11.530;2023-03-16T08:02:00;14.03;;;12.30;;
35364;SDS011;21464;48.112;11.530;2023-03-16T08:04:27;13.43;;;11.97;;
35364;SDS011;21464;48.112;11.530;2023-03-16T08:06:53;13.57;;;12.10;;
35364;SDS011;21464;48.112;11.530;2023-03-16T08:09:27;13.90;;;11.47;;
35364;SDS011;21464;48.112;11.530;2023-03-16T08:11:54;13.17;;;11.77;;
35364;SDS011;21464;48.112;11.530;2023-03-16T08:14:21;13.40;;;12.00;;
35364;SDS011;21464;48.112;11.530;2023-03-16T08:17:14;10.90;;;9.80;;
35364;SDS011;21464;48.112;11.530;2023-03-16T08:19:41;11.77;;;10.67;;
35364;SDS011;21464;48.112;11.530;2023-03-16T08:22:09;10.97;;;9.87;;
35364;SDS011;21464;48.112;11.530;2023-03-16T08:24:39;12.40;;;10.67;;
35364;SDS011;21464;48.112;11.530;2023-03-16T08:27:09;11.77;;;10.60;;
35364;SDS011;21464;48.112;11.530;2023-03-16T08:29:38;10.77;;;9.67;;
35364;SDS011;21464;48.112;11.530;2023-03-16T08:32:07;11.17;;;10.00;;
35364;SDS011;21464;48.112;11.530;2023-03-16T08:34:40;13.50;;;11.43;;
35364;SDS011;21464;48.112;11.530;2023-03-16T08:37:07;12.57;;;10.20;;
35364;SDS011;21464;48.112;11.530;2023-03-16T08:39:34;11.27;;;10.07;;
35364;SDS011;21464;48.112;11.530;2023-03-16T08:42:05;10.73;;;9.63;;
35364;SDS011;21464;48.112;11.530;2023-03-16T08:44:39;11.10;;;9.57;;
35364;SDS011;21464;48.112;11.530;2023-03-16T08:47:06;10.37;;;9.37;;
35364;SDS011;21464;48.112;11.530;2023-03-16T08:49:34;10.77;;;9.33;;
35364;SDS011;21464;48.112;11.530;2023-03-16T08:52:05;10.27;;;9.17;;
35364;SDS011;21464;48.112;11.530;2023-03-16T08:54:32;11.67;;;9.27;;
35364;SDS011;21464;48.112;11.530;2023-03-16T08:56:58;11.10;;;9.57;;
35364;SDS011;21464;48.112;11.530;2023-03-16T08:59:25;9.83;;;8.93;;
35364;SDS011;21464;48.112;11.530;2023-03-16T09:01:51;10.47;;;9.13;;
35364;SDS011;21464;48.112;11.530;2023-03-16T09:04:17;10.00;;;9.00;;
35364;SDS011;21464;48.112;11.530;2023-03-16T09:06:47;11.47;;;9.97;;
35364;SDS011;21464;48.112;11.530;2023-03-16T09:09:15;10.70;;;9.60;;
35364;SDS011;21464;48.112;11.530;2023-03-16T09:11:42;11.57;;;10.47;;
35364;SDS011;21464;48.112;11.530;2023-03-16T09:14:09;10.87;;;9.77;;
35364;SDS011;21464;48.112;11.530;2023-03-16T09:16:36;10.57;;;9.47;;
35364;SDS011;21464;48.112;11.530;2023-03-16T09:19:03;9.70;;;8.77;;
35364;SDS011;21464;48.112;11.530;2023-03-16T09:21:30;9.77;;;8.87;;
35364;SDS011;21464;48.112;11.530;2023-03-16T09:23:56;10.77;;;9.30;;
35364;SDS011;21464;48.112;11.530;2023-03-16T09:26:23;10.97;;;9.07;;
35364;SDS011;21464;48.112;11.530;2023-03-16T09:28:49;11.50;;;9.63;;
35364;SDS011;21464;48.112;11.530;2023-03-16T09:31:16;11.10;;;9.57;;
35364;SDS011;21464;48.112;11.530;2023-03-16T09:33:44;10.63;;;9.50;;
35364;SDS011;21464;48.112;11.530;2023-03-16T09:36:11;10.60;;;9.47;;
35364;SDS011;21464;48.112;11.530;2023-03-16T09:38:38;11.47;;;9.23;;
35364;SDS011;21464;48.112;11.530;2023-03-16T09:46:24;11.23;;;9.77;;
35364;SDS011;21464;48.112;11.530;2023-03-16T09:48:52;11.57;;;10.03;;
35364;SDS011;21464;48.112;11.530;2023-03-16T09:54:00;11.03;;;9.93;;
35364;SDS011;21464;48.112;11.530;2023-03-16T09:56:28;11.43;;;9.43;;
35364;SDS011;21464;48.112;11.530;2023-03-16T09:58:59;12.40;;;10.03;;
35364;SDS011;21464;48.112;11.530;2023-03-16T10:04:13;11.70;;;10.30;;
35364;SDS011;21464;48.112;11.530;2023-03-16T10:09:41;9.93;;;8.93;;
35364;SDS011;21464;48.112;11.530;2023-03-16T10:12:10;9.63;;;8.30;;
35364;SDS011;21464;48.112;11.530;2023-03-16T10:14:40;8.80;;;7.90;;
35364;SDS011;21464;48.112;11.530;2023-03-16T10:17:14;8.90;;;8.00;;
35364;SDS011;21464;48.112;11.530;2023-03-16T10:27:35;10.93;;;9.20;;
35364;SDS011;21464;48.112;11.530;2023-03-16T10:30:06;11.83;;;9.50;;
35364;SDS011;21464;48.112;11.530;2023-03-16T10:32:43;11.67;;;10.03;;
35364;SDS011;21464;48.112;11.530;2023-03-16T10:35:15;11.90;;;8.97;;
35364;SDS011;21464;48.112;11.530;2023-03-16T10:37:50;9.60;;;8.53;;
35364;SDS011;21464;48.112;11.530;2023-03-16T10:40:17;9.23;;;8.33;;
35364;SDS011;21464;48.112;11.530;2023-03-16T10:42:45;9.97;;;8.73;;
35364;SDS011;21464;48.112;11.530;2023-03-16T10:45:23;9.83;;;8.70;;
35364;SDS011;21464;48.112;11.530;2023-03-16T10:47:52;9.90;;;8.53;;
35364;SDS011;21464;48.112;11.530;2023-03-16T10:50:22;9.37;;;8.27;;
35364;SDS011;21464;48.112;11.530;2023-03-16T10:52:50;9.97;;;9.00;;
35364;SDS011;21464;48.112;11.530;2023-03-16T10:57:55;8.93;;;8.03;;
35364;SDS011;21464;48.112;11.530;2023-03-16T11:00:29;9.00;;;8.10;;
35364;SDS011;21464;48.112;11.530;2023-03-16T11:03:11;9.30;;;8.23;;
35364;SDS011;21464;48.112;11.530;2023-03-16T11:05:45;9.87;;;8.87;;
35364;SDS011;21464;48.112;11.530;2023-03-16T11:08:12;9.77;;;8.60;;
35364;SDS011;21464;48.112;11.530;2023-03-16T11:10:43;10.10;;;9.00;;
35364;SDS011;21464;48.112;11.530;2023-03-16T11:13:12;11.23;;;10.03;;
35364;SDS011;21464;48.112;11.530;2023-03-16T11:18:36;11.30;;;10.10;;
35364;SDS011;21464;48.112;11.530;2023-03-16T11:21:11;12.37;;;10.20;;
35364;SDS011;21464;48.112;11.530;2023-03-16T11:23:45;13.43;;;10.60;;
35364;SDS011;21464;48.112;11.530;2023-03-16T11:26:16;10.27;;;9.20;;
35364;SDS011;21464;48.112;11.530;2023-03-16T11:28:49;10.60;;;9.60;;
35364;SDS011;21464;48.112;11.530;2023-03-16T11:31:21;10.27;;;8.73;;
35364;SDS011;21464;48.112;11.530;2023-03-16T11:33:53;10.07;;;9.03;;
35364;SDS011;21464;48.112;11.530;2023-03-16T11:39:02;11.07;;;9.07;;
35364;SDS011;21464;48.112;11.530;2023-03-16T11:45:01;12.80;;;10.67;;
35364;SDS011;21464;48.112;11.530;2023-03-16T11:47:31;11.97;;;10.40;;
35364;SDS011;21464;48.112;11.530;2023-03-16T11:50:05;11.23;;;10.03;;
35364;SDS011;21464;48.112;11.530;2023-03-16T11:52:45;9.73;;;8.83;;
35364;SDS011;21464;48.112;11.530;2023-03-16T11:55:31;10.13;;;9.13;;
35364;SDS011;21464;48.112;11.530;2023-03-16T12:15:02;9.93;;;7.93;;
35364;SDS011;21464;48.112;11.530;2023-03-16T12:17:49;7.97;;;7.17;;
35364;SDS011;21464;48.112;11.530;2023-03-16T12:20:30;10.47;;;8.87;;
35364;SDS011;21464;48.112;11.530;2023-03-16T12:23:05;8.37;;;7.47;;
35364;SDS011;21464;48.112;11.530;2023-03-16T12:25:36;8.53;;;7.07;;
35364;SDS011;21464;48.112;11.530;2023-03-16T12:28:05;7.53;;;5.67;;
35364;SDS011;21464;48.112;11.530;2023-03-16T12:30:59;5.47;;;4.97;;
35364;SDS011;21464;48.112;11.530;2023-03-16T12:36:37;5.93;;;5.43;;
35364;SDS011;21464;48.112;11.530;2023-03-16T12:39:12;5.80;;;5.03;;
35364;SDS011;21464;48.112;11.530;2023-03-16T12:41:54;6.53;;;5.82;;
35364;SDS011;21464;48.112;11.530;2023-03-16T12:47:26;4.80;;;4.28;;
35364;SDS011;21464;48.112;11.530;2023-03-16T12:50:06;4.85;;;4.35;;
35364;SDS011;21464;48.112;11.530;2023-03-16T12:52:47;4.95;;;4.55;;
35364;SDS011;21464;48.112;11.530;2023-03-16T12:57:59;3.78;;;3.50;;
35364;SDS011;21464;48.112;11.530;2023-03-16T13:00:33;4.13;;;3.83;;
35364;SDS011;21464;48.112;11.530;2023-03-16T13:03:09;4.68;;;4.28;;
35364;SDS011;21464;48.112;11.530;2023-03-16T13:05:43;3.92;;;3.63;;
35364;SDS011;21464;48.112;11.530;2023-03-16T13:08:11;3.25;;;3.05;;
35364;SDS011;21464;48.112;11.530;2023-03-16T13:10:39;3.10;;;2.90;;
35364;SDS011;21464;48.112;11.530;2023-03-16T13:13:13;3.42;;;3.13;;
35364;SDS011;21464;48.112;11.530;2023-03-16T13:15:41;4.22;;;3.25;;
35364;SDS011;21464;48.112;11.530;2023-03-16T13:21:19;4.40;;;3.97;;
35364;SDS011;21464;48.112;11.530;2023-03-16T13:23:27;3.88;;;3.47;;
35364;SDS011;21464;48.112;11.530;2023-03-16T13:26:05;4.82;;;3.50;;
35364;SDS011;21464;48.112;11.530;2023-03-16T13:28:38;3.20;;;3.00;;
35364;SDS011;21464;48.112;11.530;2023-03-16T13:31:05;3.42;;;3.10;;
35364;SDS011;21464;48.112;11.530;2023-03-16T13:33:45;3.38;;;3.17;;
35364;SDS011;21464;48.112;11.530;2023-03-16T13:36:12;3.17;;;2.95;;
35364;SDS011;21464;48.112;11.530;2023-03-16T13:38:39;3.50;;;3.20;;
35364;SDS011;21464;48.112;11.530;2023-03-16T13:41:09;3.67;;;3.38;;
35364;SDS011;21464;48.112;11.530;2023-03-16T13:43:42;3.55;;;3.25;;
35364;SDS011;21464;48.112;11.530;2023-03-16T13:46:13;3.70;;;3.40;;
35364;SDS011;21464;48.112;11.530;2023-03-16T13:48:45;13.10;;;11.75;;
35364;SDS011;21464;48.112;11.530;2023-03-16T13:51:16;3.90;;;3.55;;
35364;SDS011;21464;48.112;11.530;2023-03-16T13:53:43;4.47;;;4.07;;
35364;SDS011;21464;48.112;11.530;2023-03-16T13:56:17;5.45;;;4.95;;
35364;SDS011;21464;48.112;11.530;2023-03-16T13:58:48;3.00;;;2.80;;
35364;SDS011;21464;48.112;11.530;2023-03-16T14:01:19;3.20;;;3.00;;
35364;SDS011;21464;48.112;11.530;2023-03-16T14:03:49;3.22;;;3.03;;
35364;SDS011;21464;48.112;11.530;2023-03-16T14:06:26;3.08;;;2.88;;
35364;SDS011;21464;48.112;11.530;2023-03-16T14:08:58;2.72;;;2.53;;
35364;SDS011;21464;48.112;11.530;2023-03-16T14:11:27;3.03;;;2.72;;
35364;SDS011;21464;48.112;11.530;2023-03-16T14:13:55;2.33;;;2.22;;
35364;SDS011;21464;48.112;11.530;2023-03-16T14:16:23;2.75;;;2.55;;
35364;SDS011;21464;48.112;11.530;2023-03-16T14:18:52;2.80;;;2.60;;
35364;SDS011;21464;48.112;11.530;2023-03-16T14:21:22;2.97;;;2.78;;
35364;SDS011;21464;48.112;11.530;2023-03-16T14:23:51;2.85;;;2.65;;
35364;SDS011;21464;48.112;11.530;2023-03-16T14:26:18;2.47;;;2.28;;
35364;SDS011;21464;48.112;11.530;2023-03-16T14:28:52;2.83;;;2.63;;
35364;SDS011;21464;48.112;11.530;2023-03-16T14:31:30;2.80;;;2.60;;
35364;SDS011;21464;48.112;11.530;2023-03-16T14:34:05;2.92;;;2.72;;
35364;SDS011;21464;48.112;11.530;2023-03-16T14:36:44;3.65;;;2.47;;
35364;SDS011;21464;48.112;11.530;2023-03-16T14:39:11;2.90;;;2.70;;
35364;SDS011;21464;48.112;11.530;2023-03-16T14:41:42;2.97;;;2.78;;
35364;SDS011;21464;48.112;11.530;2023-03-16T14:44:17;2.60;;;2.40;;
35364;SDS011;21464;48.112;11.530;2023-03-16T14:46:46;2.83;;;2.60;;
35364;SDS011;21464;48.112;11.530;2023-03-16T14:51:53;2.90;;;2.70;;
35364;SDS011;21464;48.112;11.530;2023-03-16T14:54:23;2.35;;;2.17;;
35364;SDS011;21464;48.112;11.530;2023-03-16T14:56:52;2.50;;;2.30;;
35364;SDS011;21464;48.112;11.530;2023-03-16T14:59:19;2.17;;;2.08;;
35364;SDS011;21464;48.112;11.530;2023-03-16T15:01:46;2.50;;;2.30;;
35364;SDS011;21464;48.112;11.530;2023-03-16T15:04:13;2.60;;;2.40;;
35364;SDS011;21464;48.112;11.530;2023-03-16T15:06:40;2.20;;;2.10;;
35364;SDS011;21464;48.112;11.530;2023-03-16T15:09:10;2.95;;;2.38;;
35364;SDS011;21464;48.112;11.530;2023-03-16T15:11:50;3.60;;;2.40;;
35364;SDS011;21464;48.112;11.530;2023-03-16T15:14:20;2.30;;;2.20;;
35364;SDS011;21464;48.112;11.530;2023-03-16T15:17:06;3.15;;;2.85;;
35364;SDS011;21464;48.112;11.530;2023-03-16T15:19:33;2.53;;;2.28;;
35364;SDS011;21464;48.112;11.530;2023-03-16T15:22:00;2.30;;;2.10;;
35364;SDS011;21464;48.112;11.530;2023-03-16T15:24:28;3.22;;;2.92;;
35364;SDS011;21464;48.112;11.530;2023-03-16T15:26:56;2.33;;;2.13;;
35364;SDS011;21464;48.112;11.530;2023-03-16T15:29:22;2.55;;;2.35;;
35364;SDS011;21464;48.112;11.530;2023-03-16T15:31:48;2.13;;;2.00;;
35364;SDS011;21464;48.112;11.530;2023-03-16T15:34:14;2.75;;;2.00;;
35364;SDS011;21464;48.112;11.530;2023-03-16T15:36:41;2.42;;;2.22;;
35364;SDS011;21464;48.112;11.530;2023-03-16T15:39:10;2.45;;;2.25;;
35364;SDS011;21464;48.112;11.530;2023-03-16T15:41:49;2.97;;;2.78;;
35364;SDS011;21464;48.112;11.530;2023-03-16T15:44:15;3.95;;;3.42;;
35364;SDS011;21464;48.112;11.530;2023-03-16T15:46:41;3.10;;;2.28;;
35364;SDS011;21464;48.112;11.530;2023-03-16T15:49:08;3.97;;;3.50;;
35364;SDS011;21464;48.112;11.530;2023-03-16T15:51:34;4.75;;;3.83;;
35364;SDS011;21464;48.112;11.530;2023-03-16T15:54:01;5.10;;;4.15;;